Anadyr', Russia
Current Conditions -  °F | °C
As of 1:00 AM on Friday 31 Oct 2014 (Local Time) from UHMA Reporting Station
Light Snow Light Snow  
Wind Chill: 18°   Ceiling: 3100
Heat Index: 28°   Visibility: 6mi
Dew Point: 23°   Wind: 13mph
Humidity: 80%   Direction: 100°E
Pressure: 29.94"   Gusts: NA
Location:  64.75°N, 177.48°E
Report Text: UHMA 301300Z 10006MPS 9999 -SN BKN031 OVC080 M02/M05 Q1014 RMKQFE756/1009
Loading
Personal Weather Stations






























Interactive Weather Map
Tropical Storm Tracking
New forecast layout! Learn more

10-Day Weather Forecast

Advertisements
Track Severe Weather on mobile